sensor_id;sensor_type;location;lat;lon;timestamp;P1;durP1;ratioP1;P2;durP2;ratioP2
64932;SDS011;51446;53.850;10.662;2023-12-14T00:01:21;2.60;;;2.40;;
64932;SDS011;51446;53.850;10.662;2023-12-14T00:03:46;4.67;;;2.20;;
64932;SDS011;51446;53.850;10.662;2023-12-14T00:06:12;3.17;;;2.30;;
64932;SDS011;51446;53.850;10.662;2023-12-14T00:08:37;5.20;;;2.33;;
64932;SDS011;51446;53.850;10.662;2023-12-14T00:11:06;3.53;;;2.50;;
64932;SDS011;51446;53.850;10.662;2023-12-14T00:13:35;3.20;;;2.20;;
64932;SDS011;51446;53.850;10.662;2023-12-14T00:16:01;3.83;;;2.60;;
64932;SDS011;51446;53.850;10.662;2023-12-14T00:18:27;5.40;;;2.58;;
64932;SDS011;51446;53.850;10.662;2023-12-14T00:20:52;3.57;;;2.43;;
64932;SDS011;51446;53.850;10.662;2023-12-14T00:23:19;3.10;;;2.20;;
64932;SDS011;51446;53.850;10.662;2023-12-14T00:25:44;2.67;;;2.20;;
64932;SDS011;51446;53.850;10.662;2023-12-14T00:28:10;4.13;;;2.60;;
64932;SDS011;51446;53.850;10.662;2023-12-14T00:30:35;6.75;;;2.30;;
64932;SDS011;51446;53.850;10.662;2023-12-14T00:33:00;3.88;;;2.40;;
64932;SDS011;51446;53.850;10.662;2023-12-14T00:35:25;4.40;;;2.50;;
64932;SDS011;51446;53.850;10.662;2023-12-14T00:37:51;5.25;;;2.67;;
64932;SDS011;51446;53.850;10.662;2023-12-14T00:40:16;4.10;;;2.20;;
64932;SDS011;51446;53.850;10.662;2023-12-14T00:42:41;2.90;;;2.40;;
64932;SDS011;51446;53.850;10.662;2023-12-14T00:45:07;5.20;;;2.50;;
64932;SDS011;51446;53.850;10.662;2023-12-14T00:47:32;4.50;;;2.23;;
64932;SDS011;51446;53.850;10.662;2023-12-14T00:49:58;4.20;;;2.25;;
64932;SDS011;51446;53.850;10.662;2023-12-14T00:52:23;5.88;;;2.22;;
64932;SDS011;51446;53.850;10.662;2023-12-14T00:54:48;4.78;;;2.00;;
64932;SDS011;51446;53.850;10.662;2023-12-14T00:57:13;7.18;;;2.83;;
64932;SDS011;51446;53.850;10.662;2023-12-14T00:59:39;4.50;;;2.53;;
64932;SDS011;51446;53.850;10.662;2023-12-14T01:02:05;4.20;;;2.58;;
64932;SDS011;51446;53.850;10.662;2023-12-14T01:04:31;3.05;;;2.55;;
64932;SDS011;51446;53.850;10.662;2023-12-14T01:06:56;4.83;;;2.57;;
64932;SDS011;51446;53.850;10.662;2023-12-14T01:09:21;3.03;;;2.50;;
64932;SDS011;51446;53.850;10.662;2023-12-14T01:11:46;5.00;;;2.37;;
64932;SDS011;51446;53.850;10.662;2023-12-14T01:14:12;6.60;;;2.50;;
64932;SDS011;51446;53.850;10.662;2023-12-14T01:16:37;3.07;;;2.33;;
64932;SDS011;51446;53.850;10.662;2023-12-14T01:19:03;4.75;;;3.15;;
64932;SDS011;51446;53.850;10.662;2023-12-14T01:21:30;7.50;;;2.70;;
64932;SDS011;51446;53.850;10.662;2023-12-14T01:23:56;8.33;;;2.60;;
64932;SDS011;51446;53.850;10.662;2023-12-14T01:26:21;6.27;;;2.33;;
64932;SDS011;51446;53.850;10.662;2023-12-14T01:28:46;6.00;;;2.80;;
64932;SDS011;51446;53.850;10.662;2023-12-14T01:31:11;9.67;;;3.43;;
64932;SDS011;51446;53.850;10.662;2023-12-14T01:33:36;5.40;;;2.43;;
64932;SDS011;51446;53.850;10.662;2023-12-14T01:36:02;7.90;;;2.87;;
64932;SDS011;51446;53.850;10.662;2023-12-14T01:38:27;5.63;;;2.70;;
64932;SDS011;51446;53.850;10.662;2023-12-14T01:40:52;3.33;;;2.40;;
64932;SDS011;51446;53.850;10.662;2023-12-14T01:43:20;5.18;;;2.75;;
64932;SDS011;51446;53.850;10.662;2023-12-14T01:45:46;3.80;;;2.53;;
64932;SDS011;51446;53.850;10.662;2023-12-14T01:48:11;5.77;;;2.73;;
64932;SDS011;51446;53.850;10.662;2023-12-14T01:50:36;4.63;;;2.53;;
64932;SDS011;51446;53.850;10.662;2023-12-14T01:53:01;6.30;;;2.53;;
64932;SDS011;51446;53.850;10.662;2023-12-14T01:55:27;3.87;;;2.67;;
64932;SDS011;51446;53.850;10.662;2023-12-14T01:57:52;5.73;;;2.47;;
64932;SDS011;51446;53.850;10.662;2023-12-14T02:00:38;7.32;;;2.80;;
64932;SDS011;51446;53.850;10.662;2023-12-14T02:03:07;3.63;;;2.58;;
64932;SDS011;51446;53.850;10.662;2023-12-14T02:05:33;6.03;;;2.92;;
64932;SDS011;51446;53.850;10.662;2023-12-14T02:07:58;3.67;;;2.53;;
64932;SDS011;51446;53.850;10.662;2023-12-14T02:10:23;6.93;;;2.70;;
64932;SDS011;51446;53.850;10.662;2023-12-14T02:12:49;4.27;;;2.50;;
64932;SDS011;51446;53.850;10.662;2023-12-14T02:15:14;4.43;;;2.10;;
64932;SDS011;51446;53.850;10.662;2023-12-14T02:17:39;3.83;;;2.40;;
64932;SDS011;51446;53.850;10.662;2023-12-14T02:20:05;8.13;;;2.33;;
64932;SDS011;51446;53.850;10.662;2023-12-14T02:22:35;2.50;;;2.30;;
64932;SDS011;51446;53.850;10.662;2023-12-14T02:25:14;3.42;;;2.17;;
64932;SDS011;51446;53.850;10.662;2023-12-14T02:27:39;8.37;;;3.03;;
64932;SDS011;51446;53.850;10.662;2023-12-14T02:30:04;4.10;;;2.40;;
64932;SDS011;51446;53.850;10.662;2023-12-14T02:32:30;2.67;;;2.33;;
64932;SDS011;51446;53.850;10.662;2023-12-14T02:34:55;5.40;;;2.57;;
64932;SDS011;51446;53.850;10.662;2023-12-14T02:37:21;6.87;;;2.73;;
64932;SDS011;51446;53.850;10.662;2023-12-14T02:39:46;4.53;;;2.30;;
64932;SDS011;51446;53.850;10.662;2023-12-14T02:42:12;9.82;;;2.70;;
64932;SDS011;51446;53.850;10.662;2023-12-14T02:44:37;7.70;;;2.97;;
64932;SDS011;51446;53.850;10.662;2023-12-14T02:47:02;8.80;;;3.10;;
64932;SDS011;51446;53.850;10.662;2023-12-14T02:49:28;3.80;;;2.97;;
64932;SDS011;51446;53.850;10.662;2023-12-14T02:51:53;5.47;;;3.00;;
64932;SDS011;51446;53.850;10.662;2023-12-14T02:54:18;7.03;;;3.17;;
64932;SDS011;51446;53.850;10.662;2023-12-14T02:56:43;6.57;;;2.70;;
64932;SDS011;51446;53.850;10.662;2023-12-14T02:59:09;4.00;;;2.90;;
64932;SDS011;51446;53.850;10.662;2023-12-14T03:01:34;4.43;;;3.00;;
64932;SDS011;51446;53.850;10.662;2023-12-14T03:03:59;4.70;;;2.77;;
64932;SDS011;51446;53.850;10.662;2023-12-14T03:06:24;5.57;;;2.90;;
64932;SDS011;51446;53.850;10.662;2023-12-14T03:08:50;6.13;;;3.27;;
64932;SDS011;51446;53.850;10.662;2023-12-14T03:11:21;6.03;;;3.30;;
64932;SDS011;51446;53.850;10.662;2023-12-14T03:13:48;6.57;;;2.90;;
64932;SDS011;51446;53.850;10.662;2023-12-14T03:16:13;5.63;;;2.90;;
64932;SDS011;51446;53.850;10.662;2023-12-14T03:18:38;6.07;;;2.87;;
64932;SDS011;51446;53.850;10.662;2023-12-14T03:21:04;7.47;;;3.23;;
64932;SDS011;51446;53.850;10.662;2023-12-14T03:23:29;2.93;;;2.73;;
64932;SDS011;51446;53.850;10.662;2023-12-14T03:25:54;7.87;;;3.33;;
64932;SDS011;51446;53.850;10.662;2023-12-14T03:28:19;7.03;;;2.70;;
64932;SDS011;51446;53.850;10.662;2023-12-14T03:30:45;5.03;;;2.70;;
64932;SDS011;51446;53.850;10.662;2023-12-14T03:33:10;6.43;;;2.80;;
64932;SDS011;51446;53.850;10.662;2023-12-14T03:35:35;4.43;;;2.67;;
64932;SDS011;51446;53.850;10.662;2023-12-14T03:38:01;5.70;;;3.30;;
64932;SDS011;51446;53.850;10.662;2023-12-14T03:40:26;4.50;;;2.60;;
64932;SDS011;51446;53.850;10.662;2023-12-14T03:42:51;4.33;;;2.50;;
64932;SDS011;51446;53.850;10.662;2023-12-14T03:45:16;4.77;;;3.13;;
64932;SDS011;51446;53.850;10.662;2023-12-14T03:47:42;5.03;;;2.80;;
64932;SDS011;51446;53.850;10.662;2023-12-14T03:50:07;3.10;;;2.70;;
64932;SDS011;51446;53.850;10.662;2023-12-14T03:52:35;4.22;;;3.40;;
64932;SDS011;51446;53.850;10.662;2023-12-14T03:55:00;3.97;;;2.90;;
64932;SDS011;51446;53.850;10.662;2023-12-14T03:57:26;5.60;;;3.50;;
64932;SDS011;51446;53.850;10.662;2023-12-14T03:59:51;4.53;;;3.10;;
64932;SDS011;51446;53.850;10.662;2023-12-14T04:02:16;4.67;;;2.90;;
64932;SDS011;51446;53.850;10.662;2023-12-14T04:04:41;5.33;;;3.10;;
64932;SDS011;51446;53.850;10.662;2023-12-14T04:07:07;6.00;;;3.30;;
64932;SDS011;51446;53.850;10.662;2023-12-14T04:09:32;4.13;;;3.10;;
64932;SDS011;51446;53.850;10.662;2023-12-14T04:11:57;7.17;;;3.13;;
64932;SDS011;51446;53.850;10.662;2023-12-14T04:14:22;5.93;;;2.97;;
64932;SDS011;51446;53.850;10.662;2023-12-14T04:16:48;3.13;;;2.70;;
64932;SDS011;51446;53.850;10.662;2023-12-14T04:19:13;3.83;;;3.17;;
64932;SDS011;51446;53.850;10.662;2023-12-14T04:21:38;4.27;;;2.63;;
64932;SDS011;51446;53.850;10.662;2023-12-14T04:24:03;6.00;;;3.13;;
64932;SDS011;51446;53.850;10.662;2023-12-14T04:26:29;5.95;;;3.00;;
64932;SDS011;51446;53.850;10.662;2023-12-14T04:28:54;7.13;;;2.93;;
64932;SDS011;51446;53.850;10.662;2023-12-14T04:31:19;7.03;;;3.10;;
64932;SDS011;51446;53.850;10.662;2023-12-14T04:33:45;6.53;;;2.90;;
64932;SDS011;51446;53.850;10.662;2023-12-14T04:36:10;4.00;;;3.30;;
64932;SDS011;51446;53.850;10.662;2023-12-14T04:38:35;5.03;;;2.70;;
64932;SDS011;51446;53.850;10.662;2023-12-14T04:41:00;5.93;;;3.10;;
64932;SDS011;51446;53.850;10.662;2023-12-14T04:43:26;5.50;;;3.20;;
64932;SDS011;51446;53.850;10.662;2023-12-14T04:45:54;4.13;;;2.90;;
64932;SDS011;51446;53.850;10.662;2023-12-14T04:48:19;5.27;;;2.93;;
64932;SDS011;51446;53.850;10.662;2023-12-14T04:50:44;8.60;;;3.10;;
64932;SDS011;51446;53.850;10.662;2023-12-14T04:53:10;5.87;;;2.80;;
64932;SDS011;51446;53.850;10.662;2023-12-14T04:55:35;5.40;;;3.03;;
64932;SDS011;51446;53.850;10.662;2023-12-14T04:58:01;5.83;;;3.40;;
64932;SDS011;51446;53.850;10.662;2023-12-14T05:00:26;4.33;;;3.43;;
64932;SDS011;51446;53.850;10.662;2023-12-14T05:02:51;6.97;;;3.10;;
64932;SDS011;51446;53.850;10.662;2023-12-14T05:05:17;4.80;;;3.00;;
64932;SDS011;51446;53.850;10.662;2023-12-14T05:07:42;5.00;;;3.43;;
64932;SDS011;51446;53.850;10.662;2023-12-14T05:10:07;8.63;;;4.20;;
64932;SDS011;51446;53.850;10.662;2023-12-14T05:12:34;7.78;;;3.70;;
64932;SDS011;51446;53.850;10.662;2023-12-14T05:14:59;7.47;;;3.80;;
64932;SDS011;51446;53.850;10.662;2023-12-14T05:17:25;4.83;;;3.47;;
64932;SDS011;51446;53.850;10.662;2023-12-14T05:19:50;6.73;;;3.90;;
64932;SDS011;51446;53.850;10.662;2023-12-14T05:22:15;8.20;;;3.90;;
64932;SDS011;51446;53.850;10.662;2023-12-14T05:24:40;9.60;;;4.40;;
64932;SDS011;51446;53.850;10.662;2023-12-14T05:27:06;8.03;;;4.37;;
64932;SDS011;51446;53.850;10.662;2023-12-14T05:29:31;7.10;;;4.60;;
64932;SDS011;51446;53.850;10.662;2023-12-14T05:31:58;7.83;;;4.10;;
64932;SDS011;51446;53.850;10.662;2023-12-14T05:34:23;10.82;;;4.70;;
64932;SDS011;51446;53.850;10.662;2023-12-14T05:36:48;10.48;;;4.90;;
64932;SDS011;51446;53.850;10.662;2023-12-14T05:39:14;8.88;;;5.05;;
64932;SDS011;51446;53.850;10.662;2023-12-14T05:41:40;10.50;;;4.72;;
64932;SDS011;51446;53.850;10.662;2023-12-14T05:44:06;14.45;;;5.72;;
64932;SDS011;51446;53.850;10.662;2023-12-14T05:46:31;11.57;;;5.40;;
64932;SDS011;51446;53.850;10.662;2023-12-14T05:48:56;13.27;;;5.20;;
64932;SDS011;51446;53.850;10.662;2023-12-14T05:53:54;12.43;;;5.07;;
64932;SDS011;51446;53.850;10.662;2023-12-14T05:56:19;12.67;;;5.40;;
64932;SDS011;51446;53.850;10.662;2023-12-14T05:58:44;12.10;;;6.13;;
64932;SDS011;51446;53.850;10.662;2023-12-14T06:01:09;11.70;;;5.07;;
64932;SDS011;51446;53.850;10.662;2023-12-14T06:03:35;10.47;;;5.63;;
64932;SDS011;51446;53.850;10.662;2023-12-14T06:06:00;5.47;;;4.10;;
64932;SDS011;51446;53.850;10.662;2023-12-14T06:08:25;9.53;;;4.47;;
64932;SDS011;51446;53.850;10.662;2023-12-14T06:10:50;9.17;;;4.20;;
64932;SDS011;51446;53.850;10.662;2023-12-14T06:13:16;9.90;;;4.53;;
64932;SDS011;51446;53.850;10.662;2023-12-14T06:15:41;10.80;;;4.50;;
64932;SDS011;51446;53.850;10.662;2023-12-14T06:18:06;9.57;;;4.50;;
64932;SDS011;51446;53.850;10.662;2023-12-14T06:20:31;13.07;;;4.27;;
64932;SDS011;51446;53.850;10.662;2023-12-14T06:22:57;11.45;;;4.80;;
64932;SDS011;51446;53.850;10.662;2023-12-14T06:25:22;13.47;;;5.10;;
64932;SDS011;51446;53.850;10.662;2023-12-14T06:27:47;9.20;;;5.17;;
64932;SDS011;51446;53.850;10.662;2023-12-14T06:30:13;9.67;;;5.70;;
64932;SDS011;51446;53.850;10.662;2023-12-14T06:32:39;10.57;;;5.77;;
64932;SDS011;51446;53.850;10.662;2023-12-14T06:35:05;11.38;;;5.68;;
64932;SDS011;51446;53.850;10.662;2023-12-14T06:37:30;15.25;;;5.82;;
64932;SDS011;51446;53.850;10.662;2023-12-14T06:39:56;11.07;;;5.47;;
64932;SDS011;51446;53.850;10.662;2023-12-14T06:42:21;8.73;;;5.10;;
64932;SDS011;51446;53.850;10.662;2023-12-14T06:44:46;8.97;;;5.40;;
64932;SDS011;51446;53.850;10.662;2023-12-14T06:47:11;8.17;;;5.00;;
64932;SDS011;51446;53.850;10.662;2023-12-14T06:49:38;10.13;;;5.03;;
64932;SDS011;51446;53.850;10.662;2023-12-14T06:52:05;10.50;;;5.30;;
64932;SDS011;51446;53.850;10.662;2023-12-14T06:54:30;9.63;;;5.20;;
64932;SDS011;51446;53.850;10.662;2023-12-14T06:56:55;9.40;;;4.23;;
64932;SDS011;51446;53.850;10.662;2023-12-14T06:59:21;12.50;;;4.63;;
64932;SDS011;51446;53.850;10.662;2023-12-14T07:01:46;6.70;;;4.27;;
64932;SDS011;51446;53.850;10.662;2023-12-14T07:04:11;8.33;;;4.03;;
64932;SDS011;51446;53.850;10.662;2023-12-14T07:06:36;7.25;;;4.53;;
64932;SDS011;51446;53.850;10.662;2023-12-14T07:09:02;6.93;;;4.47;;
64932;SDS011;51446;53.850;10.662;2023-12-14T07:11:27;9.85;;;4.72;;
64932;SDS011;51446;53.850;10.662;2023-12-14T07:13:52;8.75;;;4.80;;
64932;SDS011;51446;53.850;10.662;2023-12-14T07:16:17;10.50;;;4.43;;
64932;SDS011;51446;53.850;10.662;2023-12-14T07:18:43;10.40;;;5.32;;
64932;SDS011;51446;53.850;10.662;2023-12-14T07:21:09;10.50;;;5.50;;
64932;SDS011;51446;53.850;10.662;2023-12-14T07:23:35;12.93;;;5.28;;
64932;SDS011;51446;53.850;10.662;2023-12-14T07:26:01;12.87;;;5.80;;
64932;SDS011;51446;53.850;10.662;2023-12-14T07:28:26;10.68;;;5.38;;
64932;SDS011;51446;53.850;10.662;2023-12-14T07:30:51;12.47;;;5.57;;
64932;SDS011;51446;53.850;10.662;2023-12-14T07:33:17;12.13;;;5.43;;
64932;SDS011;51446;53.850;10.662;2023-12-14T07:35:42;12.97;;;6.20;;
64932;SDS011;51446;53.850;10.662;2023-12-14T07:38:08;14.43;;;6.05;;
64932;SDS011;51446;53.850;10.662;2023-12-14T07:40:34;10.38;;;5.70;;
64932;SDS011;51446;53.850;10.662;2023-12-14T07:42:59;15.27;;;6.27;;
64932;SDS011;51446;53.850;10.662;2023-12-14T07:45:25;11.50;;;6.00;;
64932;SDS011;51446;53.850;10.662;2023-12-14T07:47:50;13.13;;;5.93;;
64932;SDS011;51446;53.850;10.662;2023-12-14T07:50:15;12.50;;;5.90;;
64932;SDS011;51446;53.850;10.662;2023-12-14T07:52:40;14.17;;;6.17;;
64932;SDS011;51446;53.850;10.662;2023-12-14T07:55:06;9.70;;;5.78;;
64932;SDS011;51446;53.850;10.662;2023-12-14T07:57:32;13.05;;;6.55;;
64932;SDS011;51446;53.850;10.662;2023-12-14T07:59:57;13.87;;;6.03;;
64932;SDS011;51446;53.850;10.662;2023-12-14T08:02:23;19.67;;;6.83;;
64932;SDS011;51446;53.850;10.662;2023-12-14T08:04:48;11.27;;;6.25;;
64932;SDS011;51446;53.850;10.662;2023-12-14T08:07:13;9.67;;;6.00;;
64932;SDS011;51446;53.850;10.662;2023-12-14T08:09:39;14.13;;;6.47;;
64932;SDS011;51446;53.850;10.662;2023-12-14T08:12:04;11.20;;;5.90;;
64932;SDS011;51446;53.850;10.662;2023-12-14T08:14:32;12.35;;;5.82;;
64932;SDS011;51446;53.850;10.662;2023-12-14T08:16:59;14.57;;;6.23;;
64932;SDS011;51446;53.850;10.662;2023-12-14T08:19:24;11.30;;;6.43;;
64932;SDS011;51446;53.850;10.662;2023-12-14T08:21:49;14.23;;;6.33;;
64932;SDS011;51446;53.850;10.662;2023-12-14T08:24:15;17.13;;;6.87;;
64932;SDS011;51446;53.850;10.662;2023-12-14T08:26:40;11.80;;;6.20;;
64932;SDS011;51446;53.850;10.662;2023-12-14T08:29:05;11.87;;;6.77;;
64932;SDS011;51446;53.850;10.662;2023-12-14T08:31:30;14.60;;;6.90;;
64932;SDS011;51446;53.850;10.662;2023-12-14T08:33:55;13.90;;;6.00;;
64932;SDS011;51446;53.850;10.662;2023-12-14T08:36:21;13.73;;;6.07;;
64932;SDS011;51446;53.850;10.662;2023-12-14T08:38:46;13.13;;;6.23;;
64932;SDS011;51446;53.850;10.662;2023-12-14T08:41:12;11.23;;;5.70;;
64932;SDS011;51446;53.850;10.662;2023-12-14T08:43:40;9.60;;;5.43;;
64932;SDS011;51446;53.850;10.662;2023-12-14T08:46:05;10.65;;;5.70;;
64932;SDS011;51446;53.850;10.662;2023-12-14T08:48:30;9.60;;;5.88;;
64932;SDS011;51446;53.850;10.662;2023-12-14T08:50:56;10.05;;;5.75;;
64932;SDS011;51446;53.850;10.662;2023-12-14T08:53:21;11.10;;;5.32;;
64932;SDS011;51446;53.850;10.662;2023-12-14T08:55:46;8.65;;;5.53;;
64932;SDS011;51446;53.850;10.662;2023-12-14T08:58:11;11.00;;;5.73;;
64932;SDS011;51446;53.850;10.662;2023-12-14T09:00:37;10.87;;;5.27;;
64932;SDS011;51446;53.850;10.662;2023-12-14T09:03:03;8.18;;;4.85;;
64932;SDS011;51446;53.850;10.662;2023-12-14T09:05:28;10.77;;;5.37;;
64932;SDS011;51446;53.850;10.662;2023-12-14T09:07:54;11.93;;;5.07;;
64932;SDS011;51446;53.850;10.662;2023-12-14T09:10:21;9.88;;;5.00;;
64932;SDS011;51446;53.850;10.662;2023-12-14T09:12:47;12.33;;;4.93;;
64932;SDS011;51446;53.850;10.662;2023-12-14T09:15:12;12.27;;;5.25;;
64932;SDS011;51446;53.850;10.662;2023-12-14T09:17:37;8.80;;;4.78;;
64932;SDS011;51446;53.850;10.662;2023-12-14T09:20:03;13.20;;;4.87;;
64932;SDS011;51446;53.850;10.662;2023-12-14T09:22:31;7.47;;;4.50;;
64932;SDS011;51446;53.850;10.662;2023-12-14T09:24:57;7.93;;;5.03;;
64932;SDS011;51446;53.850;10.662;2023-12-14T09:27:22;8.93;;;4.43;;
64932;SDS011;51446;53.850;10.662;2023-12-14T09:29:48;8.13;;;6.00;;
64932;SDS011;51446;53.850;10.662;2023-12-14T09:32:13;10.43;;;5.23;;
64932;SDS011;51446;53.850;10.662;2023-12-14T09:34:38;8.40;;;4.80;;
64932;SDS011;51446;53.850;10.662;2023-12-14T09:37:04;8.30;;;5.43;;
64932;SDS011;51446;53.850;10.662;2023-12-14T09:39:29;11.20;;;4.85;;
64932;SDS011;51446;53.850;10.662;2023-12-14T09:42:04;10.88;;;4.68;;
64932;SDS011;51446;53.850;10.662;2023-12-14T09:44:31;6.85;;;4.10;;
64932;SDS011;51446;53.850;10.662;2023-12-14T09:46:59;7.53;;;4.15;;
64932;SDS011;51446;53.850;10.662;2023-12-14T09:49:31;10.10;;;4.93;;
64932;SDS011;51446;53.850;10.662;2023-12-14T09:51:57;7.93;;;4.40;;
64932;SDS011;51446;53.850;10.662;2023-12-14T09:54:23;10.73;;;4.73;;
64932;SDS011;51446;53.850;10.662;2023-12-14T09:56:49;9.50;;;4.70;;
64932;SDS011;51446;53.850;10.662;2023-12-14T09:59:14;6.50;;;4.07;;
64932;SDS011;51446;53.850;10.662;2023-12-14T10:01:40;12.30;;;5.00;;
64932;SDS011;51446;53.850;10.662;2023-12-14T10:04:09;7.47;;;4.50;;
64932;SDS011;51446;53.850;10.662;2023-12-14T10:06:35;10.05;;;4.32;;
64932;SDS011;51446;53.850;10.662;2023-12-14T10:09:02;11.73;;;4.82;;
64932;SDS011;51446;53.850;10.662;2023-12-14T10:11:27;6.33;;;4.03;;
64932;SDS011;51446;53.850;10.662;2023-12-14T10:13:52;12.30;;;4.27;;
64932;SDS011;51446;53.850;10.662;2023-12-14T10:16:30;10.10;;;4.30;;
64932;SDS011;51446;53.850;10.662;2023-12-14T10:18:57;9.02;;;4.18;;
64932;SDS011;51446;53.850;10.662;2023-12-14T10:21:25;9.17;;;4.00;;
64932;SDS011;51446;53.850;10.662;2023-12-14T10:23:52;10.13;;;4.18;;
64932;SDS011;51446;53.850;10.662;2023-12-14T10:26:21;10.88;;;5.65;;
64932;SDS011;51446;53.850;10.662;2023-12-14T10:28:47;9.48;;;4.03;;
64932;SDS011;51446;53.850;10.662;2023-12-14T10:31:12;7.13;;;3.63;;
64932;SDS011;51446;53.850;10.662;2023-12-14T10:33:38;8.73;;;3.90;;
64932;SDS011;51446;53.850;10.662;2023-12-14T10:36:03;10.10;;;4.05;;
64932;SDS011;51446;53.850;10.662;2023-12-14T10:38:29;6.80;;;3.83;;
64932;SDS011;51446;53.850;10.662;2023-12-14T10:40:57;9.07;;;4.07;;
64932;SDS011;51446;53.850;10.662;2023-12-14T10:43:23;9.10;;;3.92;;
64932;SDS011;51446;53.850;10.662;2023-12-14T10:45:49;7.40;;;3.83;;
64932;SDS011;51446;53.850;10.662;2023-12-14T10:48:16;5.87;;;3.77;;
64932;SDS011;51446;53.850;10.662;2023-12-14T10:50:45;5.72;;;3.85;;
64932;SDS011;51446;53.850;10.662;2023-12-14T10:53:11;6.70;;;3.30;;
64932;SDS011;51446;53.850;10.662;2023-12-14T10:55:38;5.72;;;3.42;;
64932;SDS011;51446;53.850;10.662;2023-12-14T10:58:07;7.23;;;3.17;;
64932;SDS011;51446;53.850;10.662;2023-12-14T11:00:33;5.22;;;3.30;;
64932;SDS011;51446;53.850;10.662;2023-12-14T11:02:59;10.15;;;3.40;;
64932;SDS011;51446;53.850;10.662;2023-12-14T11:05:26;4.23;;;3.27;;
64932;SDS011;51446;53.850;10.662;2023-12-14T11:07:55;5.35;;;3.80;;
64932;SDS011;51446;53.850;10.662;2023-12-14T11:10:26;8.10;;;3.30;;
64932;SDS011;51446;53.850;10.662;2023-12-14T11:12:57;4.57;;;3.37;;
64932;SDS011;51446;53.850;10.662;2023-12-14T11:15:30;6.38;;;3.58;;
64932;SDS011;51446;53.850;10.662;2023-12-14T11:21:18;6.68;;;3.50;;
64932;SDS011;51446;53.850;10.662;2023-12-14T11:25:50;6.73;;;3.73;;
64932;SDS011;51446;53.850;10.662;2023-12-14T11:28:16;6.82;;;3.78;;
64932;SDS011;51446;53.850;10.662;2023-12-14T11:30:43;5.97;;;3.30;;
64932;SDS011;51446;53.850;10.662;2023-12-14T11:33:10;9.95;;;4.05;;
64932;SDS011;51446;53.850;10.662;2023-12-14T11:35:36;10.10;;;3.63;;
64932;SDS011;51446;53.850;10.662;2023-12-14T11:38:02;7.37;;;3.50;;
64932;SDS011;51446;53.850;10.662;2023-12-14T11:40:34;8.63;;;3.88;;
64932;SDS011;51446;53.850;10.662;2023-12-14T11:43:03;8.93;;;3.70;;
64932;SDS011;51446;53.850;10.662;2023-12-14T11:45:35;6.15;;;3.58;;
64932;SDS011;51446;53.850;10.662;2023-12-14T11:48:02;6.87;;;3.60;;
64932;SDS011;51446;53.850;10.662;2023-12-14T11:50:30;4.47;;;3.28;;
64932;SDS011;51446;53.850;10.662;2023-12-14T11:52:56;4.65;;;3.33;;
64932;SDS011;51446;53.850;10.662;2023-12-14T11:55:22;5.07;;;3.03;;
64932;SDS011;51446;53.850;10.662;2023-12-14T11:57:47;5.17;;;3.47;;
64932;SDS011;51446;53.850;10.662;2023-12-14T12:00:14;7.60;;;3.38;;
64932;SDS011;51446;53.850;10.662;2023-12-14T12:02:40;6.55;;;3.38;;
64932;SDS011;51446;53.850;10.662;2023-12-14T12:05:06;7.70;;;3.70;;
64932;SDS011;51446;53.850;10.662;2023-12-14T12:07:31;5.25;;;3.53;;
64932;SDS011;51446;53.850;10.662;2023-12-14T12:09:58;5.40;;;3.70;;
64932;SDS011;51446;53.850;10.662;2023-12-14T12:12:24;6.72;;;3.53;;
64932;SDS011;51446;53.850;10.662;2023-12-14T12:14:49;6.90;;;3.50;;
64932;SDS011;51446;53.850;10.662;2023-12-14T12:17:17;5.50;;;3.90;;
64932;SDS011;51446;53.850;10.662;2023-12-14T12:19:44;6.07;;;4.10;;
64932;SDS011;51446;53.850;10.662;2023-12-14T12:22:10;4.67;;;3.80;;
64932;SDS011;51446;53.850;10.662;2023-12-14T12:24:35;9.60;;;5.00;;
64932;SDS011;51446;53.850;10.662;2023-12-14T12:27:00;7.87;;;5.30;;
64932;SDS011;51446;53.850;10.662;2023-12-14T12:29:26;6.77;;;4.80;;
64932;SDS011;51446;53.850;10.662;2023-12-14T12:31:51;6.63;;;4.83;;
64932;SDS011;51446;53.850;10.662;2023-12-14T12:34:16;6.00;;;4.60;;
64932;SDS011;51446;53.850;10.662;2023-12-14T12:36:42;9.73;;;4.25;;
64932;SDS011;51446;53.850;10.662;2023-12-14T12:39:07;11.83;;;5.00;;
64932;SDS011;51446;53.850;10.662;2023-12-14T12:41:33;7.30;;;4.57;;
64932;SDS011;51446;53.850;10.662;2023-12-14T12:43:59;5.10;;;4.30;;
64932;SDS011;51446;53.850;10.662;2023-12-14T12:46:31;6.28;;;4.07;;
64932;SDS011;51446;53.850;10.662;2023-12-14T12:48:57;5.95;;;3.60;;
64932;SDS011;51446;53.850;10.662;2023-12-14T12:51:22;5.20;;;3.97;;
64932;SDS011;51446;53.850;10.662;2023-12-14T12:53:47;4.90;;;3.70;;
64932;SDS011;51446;53.850;10.662;2023-12-14T12:56:12;7.30;;;5.00;;
64932;SDS011;51446;53.850;10.662;2023-12-14T12:58:38;5.90;;;3.67;;
64932;SDS011;51446;53.850;10.662;2023-12-14T13:01:03;6.63;;;3.20;;
64932;SDS011;51446;53.850;10.662;2023-12-14T13:03:28;6.10;;;3.80;;
64932;SDS011;51446;53.850;10.662;2023-12-14T13:05:53;7.20;;;3.50;;
64932;SDS011;51446;53.850;10.662;2023-12-14T13:08:19;6.32;;;4.35;;
64932;SDS011;51446;53.850;10.662;2023-12-14T13:10:44;6.32;;;4.50;;
64932;SDS011;51446;53.850;10.662;2023-12-14T13:13:10;8.50;;;4.10;;
64932;SDS011;51446;53.850;10.662;2023-12-14T13:15:37;6.70;;;4.10;;
64932;SDS011;51446;53.850;10.662;2023-12-14T13:18:04;7.30;;;3.88;;
64932;SDS011;51446;53.850;10.662;2023-12-14T13:20:29;6.67;;;4.53;;
64932;SDS011;51446;53.850;10.662;2023-12-14T13:22:54;6.18;;;4.38;;
64932;SDS011;51446;53.850;10.662;2023-12-14T13:25:19;6.85;;;4.80;;
64932;SDS011;51446;53.850;10.662;2023-12-14T13:27:47;6.85;;;4.45;;
64932;SDS011;51446;53.850;10.662;2023-12-14T13:30:12;6.83;;;4.70;;
64932;SDS011;51446;53.850;10.662;2023-12-14T13:32:42;8.20;;;4.82;;
64932;SDS011;51446;53.850;10.662;2023-12-14T13:35:07;6.10;;;4.37;;
64932;SDS011;51446;53.850;10.662;2023-12-14T13:37:33;8.07;;;4.30;;
64932;SDS011;51446;53.850;10.662;2023-12-14T13:39:59;6.20;;;4.70;;
64932;SDS011;51446;53.850;10.662;2023-12-14T13:42:24;8.37;;;5.00;;
64932;SDS011;51446;53.850;10.662;2023-12-14T13:44:49;9.23;;;4.90;;
64932;SDS011;51446;53.850;10.662;2023-12-14T13:47:14;13.67;;;5.47;;
64932;SDS011;51446;53.850;10.662;2023-12-14T13:49:40;10.40;;;5.57;;
64932;SDS011;51446;53.850;10.662;2023-12-14T13:52:05;7.57;;;5.50;;
64932;SDS011;51446;53.850;10.662;2023-12-14T13:54:30;8.10;;;5.00;;
64932;SDS011;51446;53.850;10.662;2023-12-14T13:56:55;11.90;;;5.67;;
64932;SDS011;51446;53.850;10.662;2023-12-14T13:59:21;11.83;;;5.60;;
64932;SDS011;51446;53.850;10.662;2023-12-14T14:01:46;12.40;;;5.93;;
64932;SDS011;51446;53.850;10.662;2023-12-14T14:04:15;7.72;;;5.05;;
64932;SDS011;51446;53.850;10.662;2023-12-14T14:06:40;9.93;;;5.50;;
64932;SDS011;51446;53.850;10.662;2023-12-14T14:09:05;10.20;;;5.30;;
64932;SDS011;51446;53.850;10.662;2023-12-14T14:11:32;10.43;;;5.38;;
64932;SDS011;51446;53.850;10.662;2023-12-14T14:13:57;9.43;;;5.13;;
64932;SDS011;51446;53.850;10.662;2023-12-14T14:16:22;10.23;;;5.37;;
64932;SDS011;51446;53.850;10.662;2023-12-14T14:18:47;8.57;;;6.60;;
64932;SDS011;51446;53.850;10.662;2023-12-14T14:21:13;9.30;;;5.60;;
64932;SDS011;51446;53.850;10.662;2023-12-14T14:23:38;8.70;;;5.37;;
64932;SDS011;51446;53.850;10.662;2023-12-14T14:26:03;10.47;;;6.47;;
64932;SDS011;51446;53.850;10.662;2023-12-14T14:28:29;8.13;;;5.60;;
64932;SDS011;51446;53.850;10.662;2023-12-14T14:30:55;8.77;;;5.95;;